sensor_id;sensor_type;location;lat;lon;timestamp;pressure;altitude;pressure_sealevel;temperature;humidity
21433;BME280;18592;49.708;10.900;2023-03-15T00:01:52;98018.19;;;8.55;52.88
21433;BME280;18592;49.708;10.900;2023-03-15T00:03:57;98019.81;;;8.56;52.56
21433;BME280;18592;49.708;10.900;2023-03-15T00:05:59;98027.38;;;8.54;52.67
21433;BME280;18592;49.708;10.900;2023-03-15T00:08:06;98029.28;;;8.53;52.67
21433;BME280;18592;49.708;10.900;2023-03-15T00:10:10;98032.00;;;8.53;52.62
21433;BME280;18592;49.708;10.900;2023-03-15T00:12:12;98035.81;;;8.52;52.75
21433;BME280;18592;49.708;10.900;2023-03-15T00:14:14;98042.03;;;8.53;52.98
21433;BME280;18592;49.708;10.900;2023-03-15T00:16:15;98041.22;;;8.52;52.79
21433;BME280;18592;49.708;10.900;2023-03-15T00:18:27;98048.00;;;8.50;52.85
21433;BME280;18592;49.708;10.900;2023-03-15T00:20:29;98053.41;;;8.50;53.04
21433;BME280;18592;49.708;10.900;2023-03-15T00:22:34;98057.75;;;8.51;52.85
21433;BME280;18592;49.708;10.900;2023-03-15T00:24:35;98057.75;;;8.51;53.13
21433;BME280;18592;49.708;10.900;2023-03-15T00:26:37;98068.63;;;8.51;53.05
21433;BME280;18592;49.708;10.900;2023-03-15T00:28:42;98057.19;;;8.49;53.30
21433;BME280;18592;49.708;10.900;2023-03-15T00:30:46;98065.34;;;8.49;53.29
21433;BME280;18592;49.708;10.900;2023-03-15T00:32:51;98063.69;;;8.48;53.11
21433;BME280;18592;49.708;10.900;2023-03-15T00:34:54;98067.22;;;8.48;53.05
21433;BME280;18592;49.708;10.900;2023-03-15T00:36:56;98069.13;;;8.48;53.17
21433;BME280;18592;49.708;10.900;2023-03-15T00:38:58;98084.91;;;8.51;53.22
21433;BME280;18592;49.708;10.900;2023-03-15T00:41:13;98093.00;;;8.46;53.65
21433;BME280;18592;49.708;10.900;2023-03-15T00:43:15;98090.28;;;8.46;53.38
21433;BME280;18592;49.708;10.900;2023-03-15T00:45:20;98095.72;;;8.46;53.77
21433;BME280;18592;49.708;10.900;2023-03-15T00:47:22;98104.13;;;8.44;53.35
21433;BME280;18592;49.708;10.900;2023-03-15T00:49:23;98100.84;;;8.42;53.10
21433;BME280;18592;49.708;10.900;2023-03-15T00:51:27;98104.03;;;8.39;53.38
21433;BME280;18592;49.708;10.900;2023-03-15T00:53:30;98100.50;;;8.39;53.46
21433;BME280;18592;49.708;10.900;2023-03-15T00:55:37;98094.25;;;8.38;53.29
21433;BME280;18592;49.708;10.900;2023-03-15T00:57:40;98093.41;;;8.38;53.20
21433;BME280;18592;49.708;10.900;2023-03-15T00:59:41;98107.81;;;8.38;53.00
21433;BME280;18592;49.708;10.900;2023-03-15T01:01:45;98104.78;;;8.35;53.61
21433;BME280;18592;49.708;10.900;2023-03-15T01:03:50;98110.22;;;8.35;52.94
21433;BME280;18592;49.708;10.900;2023-03-15T01:05:51;98104.19;;;8.32;53.18
21433;BME280;18592;49.708;10.900;2023-03-15T01:07:53;98117.75;;;8.32;52.90
21433;BME280;18592;49.708;10.900;2023-03-15T01:09:54;98116.13;;;8.32;53.19
21433;BME280;18592;49.708;10.900;2023-03-15T01:11:57;98113.66;;;8.30;52.83
21433;BME280;18592;49.708;10.900;2023-03-15T01:14:03;98120.41;;;8.27;52.98
21433;BME280;18592;49.708;10.900;2023-03-15T01:16:07;98124.19;;;8.26;52.92
21433;BME280;18592;49.708;10.900;2023-03-15T01:18:09;98120.88;;;8.24;52.95
21433;BME280;18592;49.708;10.900;2023-03-15T01:20:12;98129.25;;;8.23;52.85
21433;BME280;18592;49.708;10.900;2023-03-15T01:22:16;98127.84;;;8.20;52.74
21433;BME280;18592;49.708;10.900;2023-03-15T01:24:17;98128.94;;;8.19;52.81
21433;BME280;18592;49.708;10.900;2023-03-15T01:26:23;98126.72;;;8.16;52.78
21433;BME280;18592;49.708;10.900;2023-03-15T01:28:27;98140.28;;;8.16;53.07
21433;BME280;18592;49.708;10.900;2023-03-15T01:30:31;98150.81;;;8.13;53.23
21433;BME280;18592;49.708;10.900;2023-03-15T01:32:33;98141.84;;;8.12;53.13
21433;BME280;18592;49.708;10.900;2023-03-15T01:34:35;98143.75;;;8.12;52.99
21433;BME280;18592;49.708;10.900;2023-03-15T01:36:49;98142.91;;;8.11;53.00
21433;BME280;18592;49.708;10.900;2023-03-15T01:38:56;98149.97;;;8.12;53.08
21433;BME280;18592;49.708;10.900;2023-03-15T01:41:03;98143.75;;;8.12;52.91
21433;BME280;18592;49.708;10.900;2023-03-15T01:47:46;98157.53;;;8.10;52.96
21433;BME280;18592;49.708;10.900;2023-03-15T01:49:52;98149.41;;;8.10;52.73
21433;BME280;18592;49.708;10.900;2023-03-15T01:54:11;98166.78;;;8.09;53.04
21433;BME280;18592;49.708;10.900;2023-03-15T01:56:14;98170.53;;;8.08;52.79
21433;BME280;18592;49.708;10.900;2023-03-15T01:58:16;98179.75;;;8.07;53.35
21433;BME280;18592;49.708;10.900;2023-03-15T02:00:19;98179.53;;;8.09;52.97
21433;BME280;18592;49.708;10.900;2023-03-15T02:02:27;98185.69;;;8.04;53.24
21433;BME280;18592;49.708;10.900;2023-03-15T02:04:34;98183.44;;;8.01;53.25
21433;BME280;18592;49.708;10.900;2023-03-15T02:06:36;98184.28;;;8.02;53.00
21433;BME280;18592;49.708;10.900;2023-03-15T02:08:43;98189.72;;;8.02;53.17
21433;BME280;18592;49.708;10.900;2023-03-15T02:10:50;98193.22;;;8.02;53.01
21433;BME280;18592;49.708;10.900;2023-03-15T02:12:54;98192.16;;;8.03;53.04
21433;BME280;18592;49.708;10.900;2023-03-15T02:15:02;98192.16;;;8.03;53.22
21433;BME280;18592;49.708;10.900;2023-03-15T02:17:05;98192.44;;;8.02;53.10
21433;BME280;18592;49.708;10.900;2023-03-15T02:19:17;98195.94;;;8.02;53.18
21433;BME280;18592;49.708;10.900;2023-03-15T02:21:43;98197.84;;;8.02;53.18
21433;BME280;18592;49.708;10.900;2023-03-15T02:23:59;98195.13;;;8.02;53.11
21433;BME280;18592;49.708;10.900;2023-03-15T02:28:31;98206.00;;;8.02;53.24
21433;BME280;18592;49.708;10.900;2023-03-15T02:30:34;98210.59;;;8.01;53.11
21433;BME280;18592;49.708;10.900;2023-03-15T02:32:36;98216.84;;;8.02;52.90
21433;BME280;18592;49.708;10.900;2023-03-15T02:34:38;98218.72;;;8.01;53.14
21433;BME280;18592;49.708;10.900;2023-03-15T02:36:45;98218.72;;;8.01;53.12
21433;BME280;18592;49.708;10.900;2023-03-15T02:38:48;98224.16;;;8.01;52.90
21433;BME280;18592;49.708;10.900;2023-03-15T02:40:51;98224.16;;;8.01;52.87
21433;BME280;18592;49.708;10.900;2023-03-15T02:43:01;98227.09;;;8.00;52.85
21433;BME280;18592;49.708;10.900;2023-03-15T02:45:03;98225.47;;;7.99;53.17
21433;BME280;18592;49.708;10.900;2023-03-15T02:47:16;98229.25;;;7.98;53.02
21433;BME280;18592;49.708;10.900;2023-03-15T02:49:24;98240.09;;;7.98;52.92
21433;BME280;18592;49.708;10.900;2023-03-15T02:51:28;98245.78;;;7.96;53.12
21433;BME280;18592;49.708;10.900;2023-03-15T02:53:31;98247.91;;;7.94;53.04
21433;BME280;18592;49.708;10.900;2023-03-15T02:55:33;98248.97;;;7.93;52.87
21433;BME280;18592;49.708;10.900;2023-03-15T02:57:35;98258.16;;;7.92;52.86
21433;BME280;18592;49.708;10.900;2023-03-15T02:59:37;98264.66;;;7.91;53.21
21433;BME280;18592;49.708;10.900;2023-03-15T03:01:39;98267.59;;;7.90;52.87
21433;BME280;18592;49.708;10.900;2023-03-15T03:03:44;98276.00;;;7.88;53.03
21433;BME280;18592;49.708;10.900;2023-03-15T03:05:47;98281.69;;;7.87;53.10
21433;BME280;18592;49.708;10.900;2023-03-15T03:07:49;98286.50;;;7.85;52.99
21433;BME280;18592;49.708;10.900;2023-03-15T03:09:51;98291.34;;;7.83;52.88
21433;BME280;18592;49.708;10.900;2023-03-15T03:11:57;98298.06;;;7.80;52.95
21433;BME280;18592;49.708;10.900;2023-03-15T03:14:01;98294.78;;;7.78;52.97
21433;BME280;18592;49.708;10.900;2023-03-15T03:16:03;98302.09;;;7.78;52.96
21433;BME280;18592;49.708;10.900;2023-03-15T03:18:08;98307.19;;;7.74;52.72
21433;BME280;18592;49.708;10.900;2023-03-15T03:20:11;98319.94;;;7.74;52.97
21433;BME280;18592;49.708;10.900;2023-03-15T03:22:18;98322.03;;;7.72;52.75
21433;BME280;18592;49.708;10.900;2023-03-15T03:24:20;98329.59;;;7.69;52.89
21433;BME280;18592;49.708;10.900;2023-03-15T03:26:22;98334.44;;;7.67;52.77
21433;BME280;18592;49.708;10.900;2023-03-15T03:28:30;98345.28;;;7.67;52.79
21433;BME280;18592;49.708;10.900;2023-03-15T03:30:35;98337.63;;;7.64;52.78
21433;BME280;18592;49.708;10.900;2023-03-15T03:32:38;98344.34;;;7.62;52.91
21433;BME280;18592;49.708;10.900;2023-03-15T03:34:40;98352.72;;;7.60;52.87
21433;BME280;18592;49.708;10.900;2023-03-15T03:36:43;98354.84;;;7.58;52.78
21433;BME280;18592;49.708;10.900;2023-03-15T03:38:49;98363.22;;;7.57;52.67
21433;BME280;18592;49.708;10.900;2023-03-15T03:40:52;98365.34;;;7.55;52.64
21433;BME280;18592;49.708;10.900;2023-03-15T03:42:53;98366.38;;;7.54;52.99
21433;BME280;18592;49.708;10.900;2023-03-15T03:44:57;98375.81;;;7.51;52.91
21433;BME280;18592;49.708;10.900;2023-03-15T03:47:05;98367.94;;;7.50;52.71
21433;BME280;18592;49.708;10.900;2023-03-15T03:49:07;98371.94;;;7.47;52.86
21433;BME280;18592;49.708;10.900;2023-03-15T03:51:10;98374.91;;;7.46;52.81
21433;BME280;18592;49.708;10.900;2023-03-15T03:53:12;98380.53;;;7.44;52.79
21433;BME280;18592;49.708;10.900;2023-03-15T03:55:14;98381.84;;;7.42;52.95
21433;BME280;18592;49.708;10.900;2023-03-15T03:57:17;98375.00;;;7.39;52.83
21433;BME280;18592;49.708;10.900;2023-03-15T03:59:18;98381.72;;;7.37;52.89
21433;BME280;18592;49.708;10.900;2023-03-15T04:01:29;98391.13;;;7.34;52.71
21433;BME280;18592;49.708;10.900;2023-03-15T04:03:30;98391.38;;;7.33;52.52
21433;BME280;18592;49.708;10.900;2023-03-15T04:05:40;98396.69;;;7.28;52.76
21433;BME280;18592;49.708;10.900;2023-03-15T04:07:55;98404.00;;;7.27;52.79
21433;BME280;18592;49.708;10.900;2023-03-15T04:10:05;98394.44;;;7.25;52.92
21433;BME280;18592;49.708;10.900;2023-03-15T04:12:11;98403.03;;;7.22;52.80
21433;BME280;18592;49.708;10.900;2023-03-15T04:14:15;98410.56;;;7.20;52.68
21433;BME280;18592;49.708;10.900;2023-03-15T04:16:19;98407.28;;;7.18;52.72
21433;BME280;18592;49.708;10.900;2023-03-15T04:18:36;98412.13;;;7.16;52.98
21433;BME280;18592;49.708;10.900;2023-03-15T04:20:41;98426.13;;;7.13;52.69
21433;BME280;18592;49.708;10.900;2023-03-15T04:22:51;98422.00;;;7.10;52.68
21433;BME280;18592;49.708;10.900;2023-03-15T04:25:00;98419.75;;;7.07;52.76
21433;BME280;18592;49.708;10.900;2023-03-15T04:27:21;98430.00;;;7.05;52.80
21433;BME280;18592;49.708;10.900;2023-03-15T04:29:40;98428.78;;;7.01;52.75
21433;BME280;18592;49.708;10.900;2023-03-15T04:31:51;98439.88;;;6.99;52.83
21433;BME280;18592;49.708;10.900;2023-03-15T04:34:06;98443.88;;;6.97;52.84
21433;BME280;18592;49.708;10.900;2023-03-15T04:36:18;98447.63;;;6.96;52.64
21433;BME280;18592;49.708;10.900;2023-03-15T04:38:41;98454.31;;;6.93;52.84
21433;BME280;18592;49.708;10.900;2023-03-15T04:41:13;98454.81;;;6.90;52.90
21433;BME280;18592;49.708;10.900;2023-03-15T04:43:44;98455.25;;;6.87;52.78
21433;BME280;18592;49.708;10.900;2023-03-15T04:46:03;98449.25;;;6.85;53.00
21433;BME280;18592;49.708;10.900;2023-03-15T04:48:24;98464.88;;;6.83;52.97
21433;BME280;18592;49.708;10.900;2023-03-15T04:50:40;98461.59;;;6.81;52.90
21433;BME280;18592;49.708;10.900;2023-03-15T04:52:57;98462.03;;;6.78;52.84
21433;BME280;18592;49.708;10.900;2023-03-15T04:55:21;98464.16;;;6.76;53.00
21433;BME280;18592;49.708;10.900;2023-03-15T04:57:43;98470.03;;;6.73;52.94
21433;BME280;18592;49.708;10.900;2023-03-15T05:00:08;98464.84;;;6.72;52.91
21433;BME280;18592;49.708;10.900;2023-03-15T05:02:33;98468.00;;;6.69;52.99
21433;BME280;18592;49.708;10.900;2023-03-15T05:04:43;98473.66;;;6.67;53.17
21433;BME280;18592;49.708;10.900;2023-03-15T05:06:59;98478.50;;;6.65;52.86
21433;BME280;18592;49.708;10.900;2023-03-15T05:09:19;98486.81;;;6.64;53.21
21433;BME280;18592;49.708;10.900;2023-03-15T05:11:39;98489.78;;;6.62;52.77
21433;BME280;18592;49.708;10.900;2023-03-15T05:13:52;98491.06;;;6.60;52.86
21433;BME280;18592;49.708;10.900;2023-03-15T05:16:11;98483.13;;;6.58;53.13
21433;BME280;18592;49.708;10.900;2023-03-15T05:18:15;98492.34;;;6.57;52.93
21433;BME280;18592;49.708;10.900;2023-03-15T05:20:39;98494.44;;;6.55;52.99
21433;BME280;18592;49.708;10.900;2023-03-15T05:23:04;98493.81;;;6.53;53.08
21433;BME280;18592;49.708;10.900;2023-03-15T05:25:14;98498.63;;;6.51;53.39
21433;BME280;18592;49.708;10.900;2023-03-15T05:27:36;98500.75;;;6.49;53.10
21433;BME280;18592;49.708;10.900;2023-03-15T05:29:44;98504.50;;;6.48;53.03
21433;BME280;18592;49.708;10.900;2023-03-15T05:32:06;98501.19;;;6.46;53.04
21433;BME280;18592;49.708;10.900;2023-03-15T05:34:31;98503.31;;;6.44;52.91
21433;BME280;18592;49.708;10.900;2023-03-15T05:36:56;98512.72;;;6.42;52.94
21433;BME280;18592;49.708;10.900;2023-03-15T05:39:17;98519.41;;;6.39;53.16
21433;BME280;18592;49.708;10.900;2023-03-15T05:41:31;98522.13;;;6.39;53.40
21433;BME280;18592;49.708;10.900;2023-03-15T05:43:51;98528.56;;;6.38;52.70
21433;BME280;18592;49.708;10.900;2023-03-15T05:46:11;98532.34;;;6.37;53.16
21433;BME280;18592;49.708;10.900;2023-03-15T05:48:32;98529.84;;;6.35;53.56
21433;BME280;18592;49.708;10.900;2023-03-15T05:51:01;98547.16;;;6.34;53.18
21433;BME280;18592;49.708;10.900;2023-03-15T05:53:26;98557.16;;;6.34;53.45
21433;BME280;18592;49.708;10.900;2023-03-15T05:55:45;98561.72;;;6.33;53.66
21433;BME280;18592;49.708;10.900;2023-03-15T05:58:08;98566.31;;;6.33;53.08
21433;BME280;18592;49.708;10.900;2023-03-15T06:00:10;98564.69;;;6.32;53.10
21433;BME280;18592;49.708;10.900;2023-03-15T06:02:16;98565.47;;;6.32;53.15
21433;BME280;18592;49.708;10.900;2023-03-15T06:04:39;98572.78;;;6.32;53.46
21433;BME280;18592;49.708;10.900;2023-03-15T06:06:43;98569.00;;;6.33;53.20
21433;BME280;18592;49.708;10.900;2023-03-15T06:08:46;98570.09;;;6.32;53.45
21433;BME280;18592;49.708;10.900;2023-03-15T06:10:47;98567.38;;;6.32;53.11
21433;BME280;18592;49.708;10.900;2023-03-15T06:12:49;98559.25;;;6.32;53.26
21433;BME280;18592;49.708;10.900;2023-03-15T06:14:52;98571.13;;;6.31;53.52
21433;BME280;18592;49.708;10.900;2023-03-15T06:16:54;98577.56;;;6.30;53.41
21433;BME280;18592;49.708;10.900;2023-03-15T06:18:57;98564.88;;;6.30;53.40
21433;BME280;18592;49.708;10.900;2023-03-15T06:21:01;98577.56;;;6.30;53.79
21433;BME280;18592;49.708;10.900;2023-03-15T06:23:02;98573.84;;;6.31;53.38
21433;BME280;18592;49.708;10.900;2023-03-15T06:25:12;98573.84;;;6.31;53.33
21433;BME280;18592;49.708;10.900;2023-03-15T06:27:14;98575.50;;;6.32;53.79
21433;BME280;18592;49.708;10.900;2023-03-15T06:29:15;98590.06;;;6.31;54.25
21433;BME280;18592;49.708;10.900;2023-03-15T06:31:20;98588.19;;;6.31;53.76
21433;BME280;18592;49.708;10.900;2023-03-15T06:33:27;98592.53;;;6.32;53.71
21433;BME280;18592;49.708;10.900;2023-03-15T06:35:30;98589.03;;;6.32;53.81
21433;BME280;18592;49.708;10.900;2023-03-15T06:37:32;98587.75;;;6.34;54.09
21433;BME280;18592;49.708;10.900;2023-03-15T06:39:39;98583.16;;;6.35;54.14
21433;BME280;18592;49.708;10.900;2023-03-15T06:41:40;98583.78;;;6.37;53.94
21433;BME280;18592;49.708;10.900;2023-03-15T06:43:48;98580.84;;;6.38;54.16
21433;BME280;18592;49.708;10.900;2023-03-15T06:45:50;98581.44;;;6.40;53.97
21433;BME280;18592;49.708;10.900;2023-03-15T06:47:53;98591.44;;;6.40;54.36
21433;BME280;18592;49.708;10.900;2023-03-15T06:49:55;98596.41;;;6.43;54.13
21433;BME280;18592;49.708;10.900;2023-03-15T06:51:57;98589.94;;;6.44;54.47
21433;BME280;18592;49.708;10.900;2023-03-15T06:53:59;98586.56;;;6.49;54.28
21433;BME280;18592;49.708;10.900;2023-03-15T06:56:02;98589.66;;;6.52;54.70
21433;BME280;18592;49.708;10.900;2023-03-15T06:58:11;98590.41;;;6.59;54.69
21433;BME280;18592;49.708;10.900;2023-03-15T07:00:13;98590.13;;;6.67;54.69
21433;BME280;18592;49.708;10.900;2023-03-15T07:02:17;98592.06;;;6.78;54.52
21433;BME280;18592;49.708;10.900;2023-03-15T07:04:19;98607.72;;;6.94;54.91
21433;BME280;18592;49.708;10.900;2023-03-15T07:06:22;98601.69;;;7.11;54.99
21433;BME280;18592;49.708;10.900;2023-03-15T07:08:24;98603.31;;;7.30;54.95
21433;BME280;18592;49.708;10.900;2023-03-15T07:10:28;98598.91;;;7.47;54.91
21433;BME280;18592;49.708;10.900;2023-03-15T07:12:30;98606.41;;;7.63;54.75
21433;BME280;18592;49.708;10.900;2023-03-15T07:14:34;98607.84;;;7.77;54.72
21433;BME280;18592;49.708;10.900;2023-03-15T07:16:36;98606.00;;;7.89;54.67
21433;BME280;18592;49.708;10.900;2023-03-15T07:18:39;98611.19;;;8.02;54.72
21433;BME280;18592;49.708;10.900;2023-03-15T07:20:40;98617.97;;;8.11;54.44
21433;BME280;18592;49.708;10.900;2023-03-15T07:22:42;98607.34;;;8.21;54.05
21433;BME280;18592;49.708;10.900;2023-03-15T07:24:45;98614.47;;;8.34;53.97
21433;BME280;18592;49.708;10.900;2023-03-15T07:26:47;98612.34;;;8.48;54.50
21433;BME280;18592;49.708;10.900;2023-03-15T07:28:53;98611.75;;;8.69;54.50
21433;BME280;18592;49.708;10.900;2023-03-15T07:30:57;98621.78;;;8.91;55.20
21433;BME280;18592;49.708;10.900;2023-03-15T07:32:58;98616.03;;;9.16;55.31
21433;BME280;18592;49.708;10.900;2023-03-15T07:35:00;98619.03;;;9.43;55.84
21433;BME280;18592;49.708;10.900;2023-03-15T07:37:02;98608.38;;;9.70;55.41
21433;BME280;18592;49.708;10.900;2023-03-15T07:39:04;98606.38;;;9.93;55.52
21433;BME280;18592;49.708;10.900;2023-03-15T07:41:06;98604.59;;;10.15;54.91
21433;BME280;18592;49.708;10.900;2023-03-15T07:43:11;98600.81;;;10.33;54.30
21433;BME280;18592;49.708;10.900;2023-03-15T07:45:13;98609.00;;;10.50;54.20
21433;BME280;18592;49.708;10.900;2023-03-15T07:47:18;98601.84;;;10.65;54.36
21433;BME280;18592;49.708;10.900;2023-03-15T07:49:19;98609.19;;;10.81;54.09
21433;BME280;18592;49.708;10.900;2023-03-15T07:51:21;98602.88;;;10.98;54.18
21433;BME280;18592;49.708;10.900;2023-03-15T07:53:23;98611.81;;;11.15;53.55
21433;BME280;18592;49.708;10.900;2023-03-15T07:55:25;98617.97;;;11.27;53.18
21433;BME280;18592;49.708;10.900;2023-03-15T07:57:26;98615.63;;;11.35;52.47
21433;BME280;18592;49.708;10.900;2023-03-15T07:59:29;98620.81;;;11.37;51.51
21433;BME280;18592;49.708;10.900;2023-03-15T08:01:30;98613.97;;;11.34;51.61
21433;BME280;18592;49.708;10.900;2023-03-15T08:03:32;98615.56;;;11.30;51.15
21433;BME280;18592;49.708;10.900;2023-03-15T08:05:34;98611.44;;;11.28;51.25
21433;BME280;18592;49.708;10.900;2023-03-15T08:07:46;98614.75;;;11.30;51.48
21433;BME280;18592;49.708;10.900;2023-03-15T08:09:50;98619.16;;;11.36;51.55
21433;BME280;18592;49.708;10.900;2023-03-15T08:11:52;98617.88;;;11.43;51.83
21433;BME280;18592;49.708;10.900;2023-03-15T08:13:53;98618.28;;;11.52;51.98
21433;BME280;18592;49.708;10.900;2023-03-15T08:15:55;98618.88;;;11.59;51.74
21433;BME280;18592;49.708;10.900;2023-03-15T08:17:56;98615.72;;;11.67;51.72
21433;BME280;18592;49.708;10.900;2023-03-15T08:19:59;98610.38;;;11.77;51.62
21433;BME280;18592;49.708;10.900;2023-03-15T08:22:06;98606.13;;;11.86;51.08
21433;BME280;18592;49.708;10.900;2023-03-15T08:24:08;98612.50;;;11.97;51.04
21433;BME280;18592;49.708;10.900;2023-03-15T08:26:09;98618.63;;;12.09;51.13
21433;BME280;18592;49.708;10.900;2023-03-15T08:28:11;98617.94;;;12.24;51.42
21433;BME280;18592;49.708;10.900;2023-03-15T08:30:17;98613.16;;;12.41;51.79
21433;BME280;18592;49.708;10.900;2023-03-15T08:32:19;98612.75;;;12.59;51.89
21433;BME280;18592;49.708;10.900;2023-03-15T08:34:24;98618.38;;;12.79;52.11
21433;BME280;18592;49.708;10.900;2023-03-15T08:36:26;98609.72;;;12.97;51.93
21433;BME280;18592;49.708;10.900;2023-03-15T08:38:28;98603.22;;;13.08;51.45
21433;BME280;18592;49.708;10.900;2023-03-15T08:40:30;98609.88;;;13.17;51.54
21433;BME280;18592;49.708;10.900;2023-03-15T08:42:32;98610.44;;;13.24;51.27
21433;BME280;18592;49.708;10.900;2023-03-15T08:44:33;98608.28;;;13.31;51.04
21433;BME280;18592;49.708;10.900;2023-03-15T08:46:38;98607.19;;;13.32;50.57
21433;BME280;18592;49.708;10.900;2023-03-15T08:48:39;98613.50;;;13.33;49.76
21433;BME280;18592;49.708;10.900;2023-03-15T08:50:44;98622.78;;;13.27;49.22
21433;BME280;18592;49.708;10.900;2023-03-15T08:52:49;98631.78;;;13.22;49.06
21433;BME280;18592;49.708;10.900;2023-03-15T08:54:51;98632.56;;;13.13;48.98
21433;BME280;18592;49.708;10.900;2023-03-15T08:56:52;98625.66;;;13.05;48.80
21433;BME280;18592;49.708;10.900;2023-03-15T08:58:54;98632.69;;;12.96;48.67
21433;BME280;18592;49.708;10.900;2023-03-15T09:00:55;98635.38;;;12.86;48.52
21433;BME280;18592;49.708;10.900;2023-03-15T09:02:58;98632.03;;;12.79;48.38
21433;BME280;18592;49.708;10.900;2023-03-15T09:04:59;98630.88;;;12.70;48.36
21433;BME280;18592;49.708;10.900;2023-03-15T09:07:01;98639.59;;;12.62;48.12
21433;BME280;18592;49.708;10.900;2023-03-15T09:09:02;98635.66;;;12.53;48.10
21433;BME280;18592;49.708;10.900;2023-03-15T09:11:04;98643.22;;;12.41;48.16
21433;BME280;18592;49.708;10.900;2023-03-15T09:13:05;98633.03;;;12.31;48.07
21433;BME280;18592;49.708;10.900;2023-03-15T09:15:07;98645.53;;;12.22;47.78
21433;BME280;18592;49.708;10.900;2023-03-15T09:17:13;98634.75;;;12.10;47.84
21433;BME280;18592;49.708;10.900;2023-03-15T09:19:14;98643.97;;;12.04;47.99
21433;BME280;18592;49.708;10.900;2023-03-15T09:21:16;98651.56;;;11.97;48.17
21433;BME280;18592;49.708;10.900;2023-03-15T09:23:17;98655.34;;;11.91;47.86
21433;BME280;18592;49.708;10.900;2023-03-15T09:25:20;98670.84;;;11.86;48.20
21433;BME280;18592;49.708;10.900;2023-03-15T09:27:21;98674.59;;;11.80;47.88
21433;BME280;18592;49.708;10.900;2023-03-15T09:29:25;98672.06;;;11.73;47.88
21433;BME280;18592;49.708;10.900;2023-03-15T09:31:27;98685.06;;;11.66;48.16
21433;BME280;18592;49.708;10.900;2023-03-15T09:33:28;98690.97;;;11.58;47.84
21433;BME280;18592;49.708;10.900;2023-03-15T09:35:30;98689.75;;;11.49;48.02
21433;BME280;18592;49.708;10.900;2023-03-15T09:37:32;98692.09;;;11.40;48.32
21433;BME280;18592;49.708;10.900;2023-03-15T09:39:34;98694.44;;;11.32;48.05
21433;BME280;18592;49.708;10.900;2023-03-15T09:41:43;98698.69;;;11.23;48.20
21433;BME280;18592;49.708;10.900;2023-03-15T09:43:57;98702.06;;;11.13;48.31
21433;BME280;18592;49.708;10.900;2023-03-15T09:48:34;98705.09;;;10.95;48.47
21433;BME280;18592;49.708;10.900;2023-03-15T09:50:50;98705.19;;;10.83;48.45
21433;BME280;18592;49.708;10.900;2023-03-15T09:52:58;98714.88;;;10.74;48.40
21433;BME280;18592;49.708;10.900;2023-03-15T09:55:14;98709.81;;;10.66;48.40
21433;BME280;18592;49.708;10.900;2023-03-15T09:57:28;98710.72;;;10.55;48.79
21433;BME280;18592;49.708;10.900;2023-03-15T09:59:36;98707.59;;;10.47;48.70
21433;BME280;18592;49.708;10.900;2023-03-15T10:01:39;98718.06;;;10.38;48.67
21433;BME280;18592;49.708;10.900;2023-03-15T10:04:10;98717.88;;;10.28;48.68
21433;BME280;18592;49.708;10.900;2023-03-15T10:06:46;98724.44;;;10.15;48.66
21433;BME280;18592;49.708;10.900;2023-03-15T10:09:27;98724.22;;;10.05;48.64
21433;BME280;18592;49.708;10.900;2023-03-15T10:16:58;98724.78;;;9.79;49.53
21433;BME280;18592;49.708;10.900;2023-03-15T10:19:38;98738.56;;;9.73;49.30
21433;BME280;18592;49.708;10.900;2023-03-15T10:23:56;98726.88;;;9.61;49.47
21433;BME280;18592;49.708;10.900;2023-03-15T10:26:03;98728.41;;;9.56;49.46
21433;BME280;18592;49.708;10.900;2023-03-15T10:28:17;98724.53;;;9.52;49.58
21433;BME280;18592;49.708;10.900;2023-03-15T10:30:28;98722.53;;;9.48;49.65
21433;BME280;18592;49.708;10.900;2023-03-15T10:32:37;98725.72;;;9.45;50.26
21433;BME280;18592;49.708;10.900;2023-03-15T10:34:38;98727.03;;;9.42;49.77
21433;BME280;18592;49.708;10.900;2023-03-15T10:36:45;98729.16;;;9.40;49.89
21433;BME280;18592;49.708;10.900;2023-03-15T10:38:47;98732.38;;;9.37;49.93
21433;BME280;18592;49.708;10.900;2023-03-15T10:40:57;98740.16;;;9.34;50.46
21433;BME280;18592;49.708;10.900;2023-03-15T10:42:59;98737.69;;;9.32;50.33
21433;BME280;18592;49.708;10.900;2023-03-15T10:45:19;98732.72;;;9.29;50.26
21433;BME280;18592;49.708;10.900;2023-03-15T10:47:26;98731.31;;;9.27;50.64
21433;BME280;18592;49.708;10.900;2023-03-15T10:49:36;98740.78;;;9.24;50.36
21433;BME280;18592;49.708;10.900;2023-03-15T10:51:46;98738.31;;;9.23;50.42
21433;BME280;18592;49.708;10.900;2023-03-15T10:53:57;98733.34;;;9.20;50.55
21433;BME280;18592;49.708;10.900;2023-03-15T10:56:04;98728.16;;;9.18;50.41
21433;BME280;18592;49.708;10.900;2023-03-15T11:00:30;98728.38;;;9.17;51.04
21433;BME280;18592;49.708;10.900;2023-03-15T11:02:32;98726.72;;;9.16;50.88
21433;BME280;18592;49.708;10.900;2023-03-15T11:04:40;98732.38;;;9.14;50.87
21433;BME280;18592;49.708;10.900;2023-03-15T11:06:45;98729.91;;;9.13;51.00
21433;BME280;18592;49.708;10.900;2023-03-15T11:08:47;98724.69;;;9.11;50.85
21433;BME280;18592;49.708;10.900;2023-03-15T11:10:57;98731.81;;;9.12;51.13
21433;BME280;18592;49.708;10.900;2023-03-15T11:13:09;98727.41;;;9.11;51.29
21433;BME280;18592;49.708;10.900;2023-03-15T11:15:13;98725.78;;;9.10;51.54
21433;BME280;18592;49.708;10.900;2023-03-15T11:17:27;98726.84;;;9.09;51.66
21433;BME280;18592;49.708;10.900;2023-03-15T11:19:39;98725.78;;;9.10;51.62
21433;BME280;18592;49.708;10.900;2023-03-15T11:21:44;98723.66;;;9.12;51.92
21433;BME280;18592;49.708;10.900;2023-03-15T11:23:48;98728.63;;;9.15;51.53
21433;BME280;18592;49.708;10.900;2023-03-15T11:25:50;98729.19;;;9.17;51.78
21433;BME280;18592;49.708;10.900;2023-03-15T11:27:53;98728.16;;;9.18;52.06
21433;BME280;18592;49.708;10.900;2023-03-15T11:29:56;98730.03;;;9.18;52.04
21433;BME280;18592;49.708;10.900;2023-03-15T11:32:02;98727.91;;;9.20;52.15